Time;durP1;ratioP1;P1;durP2;ratioP2;P2;SDS_P1;SDS_P2;PMS_P1;PMS_P2;Temp;Humidity;BMP_temperature;BMP_pressure;BME280_temperature;BME280_humidity;BME280_pressure;Samples;Min_cycle;Max_cycle;Signal;HPM_P1;HPM_P2
2023/11/08 00:00:05;;;;;;;15.40;10.02;;;24.70;50.70;;;;;;6180455;28;82938;-60
2023/11/08 00:03:15;;;;;;;18.05;10.50;;;24.70;50.70;;;;;;6177681;28;83211;-61
2023/11/08 00:06:15;;;;;;;16.73;9.90;;;24.70;50.60;;;;;;6175159;28;83670;-60
2023/11/08 00:09:16;;;;;;;19.98;10.10;;;24.70;50.60;;;;;;6179845;28;82656;-66
2023/11/08 00:12:17;;;;;;;12.90;9.02;;;24.70;50.80;;;;;;6175316;28;85112;-65
2023/11/08 00:15:17;;;;;;;16.88;10.05;;;24.70;51.00;;;;;;6179307;28;82766;-65
2023/11/08 00:18:18;;;;;;;18.38;10.35;;;24.70;50.80;;;;;;6173045;28;83074;-64
2023/11/08 00:21:19;;;;;;;17.92;10.48;;;24.70;50.80;;;;;;6173223;28;84932;-65
2023/11/08 00:24:19;;;;;;;16.35;9.15;;;24.70;50.90;;;;;;6176114;28;83087;-66
2023/11/08 00:27:20;;;;;;;18.42;10.88;;;24.70;51.00;;;;;;6179033;28;82662;-72
2023/11/08 00:30:21;;;;;;;15.10;9.20;;;24.70;50.80;;;;;;6176617;28;83084;-68
2023/11/08 00:33:21;;;;;;;16.48;9.43;;;24.70;50.70;;;;;;6179699;28;83594;-68
2023/11/08 00:36:22;;;;;;;15.98;10.05;;;24.80;50.60;;;;;;6177504;28;83334;-68
2023/11/08 00:39:23;;;;;;;15.48;9.48;;;24.70;50.60;;;;;;6175163;28;83203;-69
2023/11/08 00:42:23;;;;;;;14.13;9.05;;;24.70;50.50;;;;;;6176758;28;84037;-72
2023/11/08 00:45:24;;;;;;;15.93;9.57;;;24.70;50.60;;;;;;6177623;28;84330;-69
2023/11/08 00:48:24;;;;;;;14.82;10.13;;;24.60;50.40;;;;;;6179681;28;80811;-68
2023/11/08 00:51:27;;;;;;;14.73;8.93;;;24.60;50.50;;;;;;6174454;28;83054;-68
2023/11/08 00:54:27;;;;;;;16.55;10.10;;;24.60;50.50;;;;;;6177984;28;83346;-68
2023/11/08 00:57:30;;;;;;;16.33;10.20;;;24.60;50.40;;;;;;6174294;28;85510;-68
2023/11/08 01:00:30;;;;;;;12.88;8.93;;;24.60;50.40;;;;;;6173903;28;83260;-67
2023/11/08 01:03:32;;;;;;;14.07;9.05;;;24.60;50.50;;;;;;6178151;28;83089;-66
2023/11/08 01:06:32;;;;;;;15.85;9.25;;;24.60;50.50;;;;;;6177915;28;81747;-67
2023/11/08 01:09:33;;;;;;;14.95;9.73;;;24.60;50.60;;;;;;6178389;28;80692;-67
2023/11/08 01:12:33;;;;;;;18.10;9.55;;;24.60;50.70;;;;;;6177603;28;80543;-66
2023/11/08 01:15:34;;;;;;;14.32;9.35;;;24.60;50.60;;;;;;6177686;28;80443;-65
2023/11/08 01:18:34;;;;;;;14.73;9.43;;;24.60;50.60;;;;;;6177481;28;80664;-65
2023/11/08 01:21:35;;;;;;;14.75;9.35;;;24.60;50.50;;;;;;6178412;28;80909;-72
2023/11/08 01:24:36;;;;;;;17.58;10.85;;;24.60;50.60;;;;;;6178064;28;80097;-71
2023/11/08 01:27:37;;;;;;;14.23;9.05;;;24.60;51.20;;;;;;6175069;28;84545;-71
2023/11/08 01:30:38;;;;;;;14.52;9.48;;;24.60;50.50;;;;;;6171837;28;84195;-71
2023/11/08 01:33:38;;;;;;;18.33;10.38;;;24.60;50.50;;;;;;6176815;28;80402;-69
2023/11/08 01:36:39;;;;;;;13.18;8.95;;;24.50;50.50;;;;;;6174680;28;86382;-69
2023/11/08 01:39:39;;;;;;;15.27;9.02;;;24.60;50.40;;;;;;6176194;28;88237;-68
2023/11/08 01:42:41;;;;;;;12.35;8.68;;;24.60;50.40;;;;;;6178195;28;83804;-69
2023/11/08 01:45:41;;;;;;;16.60;9.07;;;24.50;50.30;;;;;;6177580;28;80728;-70
2023/11/08 01:48:42;;;;;;;15.88;8.85;;;24.60;50.30;;;;;;6177285;28;81212;-71
2023/11/08 01:51:42;;;;;;;14.80;8.52;;;24.60;50.30;;;;;;6175079;28;80589;-69
2023/11/08 01:54:49;;;;;;;14.90;8.75;;;24.60;50.10;;;;;;6178254;28;81000;-68
2023/11/08 01:57:51;;;;;;;15.02;8.35;;;24.60;49.90;;;;;;6168457;28;81994;-60
2023/11/08 02:00:52;;;;;;;13.13;8.02;;;24.70;50.00;;;;;;6176039;28;82937;-61
2023/11/08 02:03:56;;;;;;;14.68;8.95;;;24.60;49.90;;;;;;6176129;28;82754;-60
2023/11/08 02:06:56;;;;;;;14.85;8.55;;;24.60;49.90;;;;;;6176517;28;80591;-61
2023/11/08 02:09:57;;;;;;;12.93;8.13;;;24.70;50.00;;;;;;6175939;28;83952;-60
2023/11/08 02:12:57;;;;;;;12.85;8.25;;;24.60;49.80;;;;;;6174251;28;83480;-60
2023/11/08 02:15:58;;;;;;;12.35;7.97;;;24.70;49.90;;;;;;6174962;28;82968;-61
2023/11/08 02:18:59;;;;;;;14.10;8.50;;;24.60;49.80;;;;;;6164025;28;80243;-71
2023/11/08 02:21:59;;;;;;;12.93;7.85;;;24.70;50.00;;;;;;6177308;28;80414;-68
2023/11/08 02:25:00;;;;;;;12.57;8.20;;;24.60;50.00;;;;;;6175392;28;83265;-68
2023/11/08 02:28:00;;;;;;;14.98;7.68;;;24.60;50.00;;;;;;6177013;28;80398;-68
2023/11/08 02:31:01;;;;;;;15.98;8.63;;;24.60;50.00;;;;;;6157446;28;81606;-68
2023/11/08 02:34:01;;;;;;;12.98;7.88;;;24.60;50.00;;;;;;6177747;28;82281;-70
2023/11/08 02:37:02;;;;;;;11.10;7.65;;;24.60;49.90;;;;;;6177462;28;80376;-70
2023/11/08 02:40:05;;;;;;;11.55;7.70;;;24.60;50.10;;;;;;6177843;28;80485;-72
2023/11/08 02:43:06;;;;;;;12.27;8.15;;;24.70;49.90;;;;;;6177348;28;80180;-70
2023/11/08 02:46:06;;;;;;;14.95;7.82;;;24.70;49.90;;;;;;6174384;28;81918;-72
2023/11/08 02:49:07;;;;;;;10.68;6.50;;;24.60;49.90;;;;;;6177039;28;81288;-67
2023/11/08 02:52:08;;;;;;;11.93;6.57;;;24.60;50.00;;;;;;6176620;28;80460;-66
2023/11/08 02:55:11;;;;;;;9.75;6.50;;;24.60;49.90;;;;;;6174643;28;81166;-63
2023/11/08 02:58:11;;;;;;;12.10;7.10;;;24.60;49.90;;;;;;6174790;28;80424;-62
2023/11/08 03:01:12;;;;;;;8.98;6.07;;;24.60;49.70;;;;;;6174710;28;81648;-61
2023/11/08 03:04:13;;;;;;;9.23;6.35;;;24.60;49.90;;;;;;6175605;28;80385;-61
2023/11/08 03:07:13;;;;;;;10.48;6.40;;;24.60;49.90;;;;;;6176337;28;81151;-62
2023/11/08 03:10:17;;;;;;;9.90;6.50;;;24.60;49.80;;;;;;6175277;28;82328;-63
2023/11/08 03:13:18;;;;;;;9.23;6.30;;;24.60;49.80;;;;;;6175869;28;82827;-60
2023/11/08 03:16:18;;;;;;;10.15;6.40;;;24.60;49.70;;;;;;6175943;28;80991;-60
2023/11/08 03:19:23;;;;;;;12.98;7.22;;;24.60;49.80;;;;;;6170960;28;87710;-59
2023/11/08 03:22:24;;;;;;;11.45;6.63;;;24.60;49.80;;;;;;6148826;28;83266;-59
2023/11/08 03:25:24;;;;;;;9.68;6.25;;;24.60;49.70;;;;;;6153179;28;82685;-59
2023/11/08 03:28:25;;;;;;;10.05;6.03;;;24.50;49.80;;;;;;6178917;28;82775;-61
2023/11/08 03:31:25;;;;;;;10.88;6.05;;;24.60;49.80;;;;;;6181617;28;80411;-62
2023/11/08 03:34:27;;;;;;;9.45;6.05;;;24.60;49.70;;;;;;6180053;28;80159;-61
2023/11/08 03:37:27;;;;;;;11.00;6.40;;;24.60;49.70;;;;;;6180587;28;80734;-63
2023/11/08 03:40:28;;;;;;;11.25;6.10;;;24.60;49.70;;;;;;6177993;28;83400;-62
2023/11/08 03:43:28;;;;;;;10.43;6.43;;;24.60;49.70;;;;;;6059177;28;83198;-61
2023/11/08 03:46:29;;;;;;;8.75;5.80;;;24.60;49.00;;;;;;6050812;28;80902;-61
2023/11/08 03:49:34;;;;;;;11.80;6.20;;;24.60;49.50;;;;;;6049905;28;83264;-65
2023/11/08 03:52:35;;;;;;;10.13;5.75;;;24.60;49.70;;;;;;6052593;28;82261;-67
2023/11/08 03:55:35;;;;;;;8.52;5.55;;;24.60;49.70;;;;;;6049338;28;82939;-66
2023/11/08 03:58:36;;;;;;;9.75;6.40;;;24.60;49.60;;;;;;6051677;28;81898;-66
2023/11/08 04:01:37;;;;;;;8.45;5.90;;;24.60;49.30;;;;;;6054728;28;82807;-65
2023/11/08 04:04:38;;;;;;;9.60;6.07;;;24.70;49.40;;;;;;6051249;28;82074;-66
2023/11/08 04:07:38;;;;;;;9.95;5.53;;;24.70;49.30;;;;;;6050920;28;84877;-67
2023/11/08 04:10:39;;;;;;;8.57;5.85;;;24.70;49.20;;;;;;6050536;28;82385;-68
2023/11/08 04:13:39;;;;;;;9.80;5.78;;;24.70;49.20;;;;;;6052536;28;82021;-68
2023/11/08 04:16:40;;;;;;;8.45;5.20;;;24.70;49.10;;;;;;6035909;28;87388;-70
2023/11/08 04:19:40;;;;;;;8.90;5.63;;;24.60;49.00;;;;;;6054157;28;82364;-67
2023/11/08 04:22:42;;;;;;;8.55;5.28;;;24.60;49.20;;;;;;6050857;28;81418;-68
2023/11/08 04:25:44;;;;;;;7.68;5.18;;;24.60;49.10;;;;;;6047236;28;84224;-67
2023/11/08 04:28:45;;;;;;;8.00;4.90;;;24.70;49.30;;;;;;6046256;28;81720;-67
2023/11/08 04:31:46;;;;;;;12.32;6.22;;;24.70;49.30;;;;;;6046683;28;83720;-66
2023/11/08 04:34:48;;;;;;;8.25;5.15;;;24.70;49.30;;;;;;6041450;28;81071;-68
2023/11/08 04:37:49;;;;;;;7.13;4.70;;;24.70;49.30;;;;;;6049033;28;82267;-68
2023/11/08 04:40:50;;;;;;;6.90;5.18;;;24.70;49.20;;;;;;6050190;28;81903;-67
2023/11/08 04:43:50;;;;;;;7.72;4.78;;;24.70;49.30;;;;;;6050920;28;81804;-72
2023/11/08 04:46:51;;;;;;;6.22;4.30;;;24.70;49.30;;;;;;6050113;28;80622;-69
2023/11/08 04:49:53;;;;;;;7.45;4.90;;;24.70;48.90;;;;;;6052573;28;80475;-69
2023/11/08 04:52:54;;;;;;;8.00;4.68;;;24.70;48.90;;;;;;6047135;28;81342;-71
2023/11/08 04:55:54;;;;;;;9.40;4.82;;;24.70;48.70;;;;;;6049207;28;86102;-68
2023/11/08 04:58:55;;;;;;;8.77;5.00;;;24.70;48.60;;;;;;6047523;28;82200;-66
2023/11/08 05:01:55;;;;;;;6.97;4.40;;;24.80;48.70;;;;;;6046389;28;80949;-73
2023/11/08 05:04:56;;;;;;;5.13;3.92;;;24.70;48.50;;;;;;6049435;28;81370;-65
2023/11/08 05:07:56;;;;;;;6.72;4.70;;;24.80;48.50;;;;;;6075782;28;82456;-66
2023/11/08 05:10:57;;;;;;;7.72;4.72;;;24.80;48.40;;;;;;6166498;28;82987;-71
2023/11/08 05:13:57;;;;;;;5.88;4.03;;;24.80;48.50;;;;;;6174296;28;80395;-68
2023/11/08 05:16:58;;;;;;;8.75;4.35;;;24.90;49.00;;;;;;6172880;28;81305;-73
2023/11/08 05:19:58;;;;;;;12.52;4.85;;;24.90;48.80;;;;;;6171531;28;81694;-71
2023/11/08 05:22:59;;;;;;;6.57;4.65;;;24.80;49.40;;;;;;6167769;28;82297;-69
2023/11/08 05:25:59;;;;;;;8.43;4.38;;;24.80;49.10;;;;;;6151750;28;80676;-66
2023/11/08 05:29:00;;;;;;;11.18;5.35;;;24.80;49.40;;;;;;6159967;28;82521;-71
2023/11/08 05:32:02;;;;;;;7.30;4.60;;;24.80;49.50;;;;;;6173568;28;82108;-74
2023/11/08 05:35:03;;;;;;;7.75;4.90;;;24.90;49.60;;;;;;6170012;28;80777;-70
2023/11/08 05:38:04;;;;;;;7.35;4.72;;;24.90;49.60;;;;;;6172589;28;80310;-71
2023/11/08 05:41:05;;;;;;;9.88;4.30;;;24.90;50.00;;;;;;6174129;28;81192;-69
2023/11/08 05:44:06;;;;;;;9.27;5.07;;;24.90;49.70;;;;;;6175814;28;80375;-70
2023/11/08 05:47:06;;;;;;;9.85;5.13;;;24.90;50.20;;;;;;6158379;28;81493;-64
2023/11/08 05:50:09;;;;;;;13.43;6.10;;;24.90;50.40;;;;;;6167864;28;81089;-64
2023/11/08 05:53:10;;;;;;;10.35;5.28;;;24.90;50.30;;;;;;6173570;28;80415;-62
2023/11/08 05:56:10;;;;;;;15.82;6.18;;;24.90;50.10;;;;;;6172178;28;80453;-62
2023/11/08 05:59:11;;;;;;;12.45;5.88;;;24.90;50.40;;;;;;6174871;28;80480;-65
2023/11/08 06:02:11;;;;;;;13.35;5.50;;;24.90;50.00;;;;;;6173812;28;80886;-67
2023/11/08 06:05:12;;;;;;;20.23;7.28;;;24.90;50.10;;;;;;6170839;28;81725;-63
2023/11/08 06:08:12;;;;;;;13.60;6.10;;;24.90;50.60;;;;;;6174520;28;80798;-62
2023/11/08 06:11:15;;;;;;;12.95;7.90;;;24.70;50.10;;;;;;6172171;28;80689;-62
2023/11/08 06:14:16;;;;;;;17.30;9.20;;;24.60;48.60;;;;;;6169693;28;80453;-63
2023/11/08 06:17:16;;;;;;;16.00;10.32;;;24.50;48.00;;;;;;6174428;28;80851;-63
2023/11/08 06:20:17;;;;;;;17.42;9.68;;;24.40;47.50;;;;;;6170901;28;84479;-65
2023/11/08 06:23:17;;;;;;;17.98;10.23;;;24.30;47.20;;;;;;6175581;28;82902;-63
2023/11/08 06:26:18;;;;;;;18.35;11.02;;;24.20;46.90;;;;;;6149948;28;88322;-62
2023/11/08 06:29:18;;;;;;;17.38;11.35;;;24.10;46.60;;;;;;6160461;28;83973;-63
2023/11/08 06:32:20;;;;;;;19.42;11.93;;;24.00;46.40;;;;;;6160278;28;85070;-62
2023/11/08 06:35:20;;;;;;;18.77;10.35;;;24.00;46.30;;;;;;6165527;28;83093;-67
2023/11/08 06:38:22;;;;;;;21.02;12.63;;;23.90;46.60;;;;;;6168415;28;82992;-68
2023/11/08 06:41:23;;;;;;;21.58;12.52;;;23.80;45.80;;;;;;6161527;28;84323;-66
2023/11/08 06:44:24;;;;;;;22.83;13.75;;;23.70;45.90;;;;;;6171755;28;83128;-68
2023/11/08 06:47:24;;;;;;;20.40;12.43;;;23.70;45.90;;;;;;6172240;28;83952;-68
2023/11/08 06:50:25;;;;;;;21.52;13.55;;;23.70;45.90;;;;;;6172147;28;82885;-64
2023/11/08 06:53:26;;;;;;;21.40;12.73;;;23.60;45.70;;;;;;6172778;28;83771;-64
2023/11/08 06:56:26;;;;;;;19.10;12.38;;;23.60;45.70;;;;;;6172299;28;83092;-65
2023/11/08 06:59:27;;;;;;;22.17;13.23;;;23.60;45.80;;;;;;6161975;28;84680;-68
2023/11/08 07:02:28;;;;;;;20.25;12.32;;;23.50;45.90;;;;;;6047270;28;85044;-66
2023/11/08 07:05:31;;;;;;;21.73;13.48;;;23.50;45.70;;;;;;6012890;28;84586;-68
2023/11/08 07:08:35;;;;;;;19.15;12.27;;;23.50;45.70;;;;;;6029220;28;86212;-66
2023/11/08 07:11:35;;;;;;;20.95;12.32;;;23.40;45.70;;;;;;6045493;28;85287;-60
2023/11/08 07:14:36;;;;;;;24.48;11.63;;;23.40;45.60;;;;;;6048778;28;85081;-59
2023/11/08 07:17:36;;;;;;;17.15;11.30;;;23.30;45.60;;;;;;6046364;28;84808;-60
2023/11/08 07:20:37;;;;;;;20.55;10.38;;;23.30;45.90;;;;;;6047281;28;83503;-62
2023/11/08 07:23:37;;;;;;;15.50;10.15;;;23.30;45.70;;;;;;6049053;28;85127;-61
2023/11/08 07:26:38;;;;;;;18.10;10.68;;;23.20;45.60;;;;;;6050006;28;84539;-61
2023/11/08 07:29:39;;;;;;;15.75;9.45;;;23.30;45.80;;;;;;6050582;28;84975;-61
2023/11/08 07:32:39;;;;;;;13.85;9.00;;;23.20;45.70;;;;;;6051464;28;83395;-60
2023/11/08 07:35:41;;;;;;;16.55;9.15;;;23.20;45.80;;;;;;6045703;28;82403;-60
2023/11/08 07:38:42;;;;;;;12.10;8.50;;;23.20;45.80;;;;;;6052725;28;82580;-59
2023/11/08 07:41:42;;;;;;;13.52;8.15;;;23.20;45.80;;;;;;6048538;28;82002;-60
2023/11/08 07:44:43;;;;;;;12.40;8.45;;;23.20;45.70;;;;;;6050673;28;81682;-60
2023/11/08 07:47:45;;;;;;;14.27;8.85;;;23.10;45.80;;;;;;6052682;28;80094;-67
2023/11/08 07:50:46;;;;;;;12.70;7.82;;;23.20;45.80;;;;;;6051780;28;80597;-66
2023/11/08 07:53:47;;;;;;;11.40;7.93;;;23.10;45.80;;;;;;6051700;28;80154;-67
2023/11/08 07:56:47;;;;;;;15.95;8.05;;;23.10;45.80;;;;;;6056008;28;80658;-67
2023/11/08 07:59:49;;;;;;;12.32;7.50;;;23.10;45.80;;;;;;6051506;28;82093;-67
2023/11/08 08:02:49;;;;;;;10.85;7.25;;;23.10;45.80;;;;;;6053201;28;82358;-67
2023/11/08 08:05:51;;;;;;;12.00;7.63;;;23.10;45.80;;;;;;6054968;28;82526;-65
2023/11/08 08:08:55;;;;;;;8.27;6.35;;;23.10;45.90;;;;;;6050812;28;81249;-67
2023/11/08 08:11:57;;;;;;;10.95;7.47;;;23.10;46.00;;;;;;6051413;28;81131;-67
2023/11/08 08:14:58;;;;;;;10.35;6.10;;;23.10;45.80;;;;;;6051879;28;82216;-67
2023/11/08 08:17:59;;;;;;;10.70;6.00;;;23.10;45.90;;;;;;6052930;28;81019;-66
2023/11/08 08:20:59;;;;;;;9.15;5.68;;;23.10;46.00;;;;;;6129219;28;82347;-66
2023/11/08 08:24:00;;;;;;;10.68;5.63;;;23.10;46.10;;;;;;6177135;28;80038;-60
2023/11/08 08:27:00;;;;;;;6.47;4.47;;;23.10;46.20;;;;;;6176591;28;80580;-60
2023/11/08 08:30:01;;;;;;;7.13;4.50;;;23.10;46.30;;;;;;6176836;28;80828;-60
2023/11/08 08:33:04;;;;;;;8.00;4.30;;;23.00;46.20;;;;;;6177990;28;80569;-60
2023/11/08 08:36:05;;;;;;;5.25;3.38;;;23.00;46.40;;;;;;6177798;28;80770;-59
2023/11/08 08:39:05;;;;;;;6.38;3.88;;;23.00;46.30;;;;;;6177168;28;81190;-59
2023/11/08 08:42:06;;;;;;;5.47;3.60;;;23.00;46.40;;;;;;6176626;28;81800;-64
2023/11/08 08:45:08;;;;;;;6.30;3.13;;;23.00;46.50;;;;;;6178043;28;80954;-66
2023/11/08 08:48:08;;;;;;;7.38;4.18;;;23.00;46.80;;;;;;6176713;28;80584;-69
2023/11/08 08:51:09;;;;;;;5.60;3.28;;;23.00;46.80;;;;;;6178320;28;80711;-65
2023/11/08 08:54:10;;;;;;;5.80;3.25;;;23.10;46.90;;;;;;6177517;28;80809;-69
2023/11/08 08:57:11;;;;;;;6.28;3.40;;;23.10;46.80;;;;;;6177298;28;80594;-65
2023/11/08 09:00:11;;;;;;;4.88;2.80;;;23.10;47.40;;;;;;6177701;28;80561;-63
2023/11/08 09:03:14;;;;;;;3.75;2.70;;;23.10;46.90;;;;;;6177516;28;82874;-65
2023/11/08 09:06:15;;;;;;;6.30;3.28;;;23.10;47.00;;;;;;6176095;28;80535;-65
2023/11/08 09:09:16;;;;;;;5.22;3.42;;;23.10;46.80;;;;;;6175769;28;84047;-65
2023/11/08 09:12:16;;;;;;;4.75;3.40;;;23.10;46.90;;;;;;6176531;28;81576;-65
2023/11/08 09:15:17;;;;;;;5.22;3.40;;;23.10;46.80;;;;;;6175540;28;80575;-65
2023/11/08 09:18:17;;;;;;;4.13;3.08;;;23.10;46.70;;;;;;6177316;28;80576;-65
2023/11/08 09:21:18;;;;;;;6.82;3.58;;;23.10;46.70;;;;;;6176722;28;80998;-66
2023/11/08 09:24:20;;;;;;;6.72;3.67;;;23.10;46.60;;;;;;6176084;28;80546;-66
2023/11/08 09:27:20;;;;;;;5.65;3.08;;;23.10;46.80;;;;;;6177297;28;80018;-65
2023/11/08 09:30:21;;;;;;;6.85;3.20;;;23.10;46.50;;;;;;6177090;28;80669;-65
2023/11/08 09:33:21;;;;;;;4.38;2.88;;;23.00;46.40;;;;;;6178477;28;80553;-65
2023/11/08 09:36:23;;;;;;;6.97;2.63;;;23.00;46.40;;;;;;6177129;28;80298;-65
2023/11/08 09:39:24;;;;;;;3.40;2.45;;;23.00;46.20;;;;;;6177401;28;80446;-65
2023/11/08 09:42:29;;;;;;;3.75;2.53;;;23.00;46.20;;;;;;6178812;28;80902;-63
2023/11/08 09:45:31;;;;;;;3.87;2.70;;;23.00;46.10;;;;;;6172746;28;80727;-64
2023/11/08 09:48:31;;;;;;;6.57;2.50;;;23.00;46.10;;;;;;6177968;28;80211;-66
2023/11/08 09:51:32;;;;;;;2.90;2.25;;;23.00;46.10;;;;;;6177477;28;80670;-67
2023/11/08 09:54:32;;;;;;;4.53;2.65;;;23.10;46.00;;;;;;6177205;28;80264;-65
2023/11/08 09:57:33;;;;;;;2.25;1.58;;;23.10;45.80;;;;;;6178056;28;80875;-67
2023/11/08 10:00:33;;;;;;;3.85;1.80;;;23.20;45.70;;;;;;6176674;28;80878;-65
2023/11/08 10:03:34;;;;;;;3.85;2.35;;;23.20;45.60;;;;;;6177475;28;83379;-67
2023/11/08 10:06:34;;;;;;;5.40;1.65;;;23.30;45.60;;;;;;6177841;28;80268;-67
2023/11/08 10:09:36;;;;;;;3.42;1.95;;;23.30;45.50;;;;;;6175908;28;80584;-66
2023/11/08 10:12:36;;;;;;;3.38;2.25;;;23.30;45.50;;;;;;6176743;28;80194;-67
2023/11/08 10:15:37;;;;;;;2.40;1.73;;;23.40;45.40;;;;;;6177430;28;80664;-65
2023/11/08 10:18:38;;;;;;;2.03;1.77;;;23.40;45.40;;;;;;6175201;28;83010;-65
2023/11/08 10:21:38;;;;;;;3.65;2.03;;;23.40;45.40;;;;;;6176394;28;80650;-63
2023/11/08 10:24:38;;;;;;;3.97;2.08;;;23.40;45.30;;;;;;6177146;28;81578;-64
2023/11/08 10:27:39;;;;;;;2.58;1.83;;;23.40;45.30;;;;;;6176941;28;80457;-64
2023/11/08 10:30:40;;;;;;;6.10;2.10;;;23.40;45.20;;;;;;6174856;28;85492;-64
2023/11/08 10:33:40;;;;;;;4.45;2.25;;;23.40;45.10;;;;;;6176382;28;80546;-64
2023/11/08 10:36:40;;;;;;;2.67;1.70;;;23.40;45.10;;;;;;6175657;28;80855;-63
2023/11/08 10:39:41;;;;;;;3.17;2.53;;;23.50;45.00;;;;;;6174834;28;80510;-63
2023/11/08 10:42:42;;;;;;;2.78;1.80;;;23.60;44.80;;;;;;6175765;28;80385;-63
2023/11/08 10:45:42;;;;;;;3.78;2.40;;;23.60;44.80;;;;;;6176675;28;80386;-62
2023/11/08 10:48:43;;;;;;;3.47;2.30;;;23.60;44.60;;;;;;6177451;28;80462;-64
2023/11/08 10:51:44;;;;;;;3.05;1.98;;;23.60;44.70;;;;;;6176322;28;80586;-61
2023/11/08 10:54:44;;;;;;;4.82;2.20;;;23.60;44.60;;;;;;6176177;28;81223;-61
2023/11/08 10:57:45;;;;;;;4.32;2.38;;;23.50;44.70;;;;;;6175604;28;80646;-61
2023/11/08 11:00:45;;;;;;;3.03;1.98;;;23.50;44.90;;;;;;6176077;28;80903;-61
2023/11/08 11:03:46;;;;;;;5.97;2.55;;;23.50;44.80;;;;;;6176590;28;81075;-60
2023/11/08 11:06:47;;;;;;;3.63;1.98;;;23.40;44.70;;;;;;6176326;28;81065;-61
2023/11/08 11:09:48;;;;;;;4.38;2.42;;;23.40;44.70;;;;;;6175876;28;80305;-67
2023/11/08 11:12:48;;;;;;;3.65;2.40;;;23.60;44.60;;;;;;6175893;28;81903;-67
2023/11/08 11:15:49;;;;;;;4.00;2.15;;;23.60;44.30;;;;;;6175989;28;80605;-66
2023/11/08 11:18:49;;;;;;;2.90;1.85;;;23.50;44.30;;;;;;6175389;28;80645;-66
2023/11/08 11:21:50;;;;;;;5.40;2.03;;;23.50;44.40;;;;;;6175985;28;80385;-66
2023/11/08 11:24:52;;;;;;;3.80;1.95;;;23.40;44.10;;;;;;6176273;28;80800;-66
2023/11/08 11:27:53;;;;;;;4.80;2.45;;;23.50;44.10;;;;;;6176068;28;80933;-63
2023/11/08 11:30:54;;;;;;;2.70;1.58;;;23.50;43.80;;;;;;6172802;28;82897;-64
2023/11/08 11:33:54;;;;;;;4.13;1.95;;;23.40;44.00;;;;;;6168085;28;81624;-64
2023/11/08 11:36:55;;;;;;;3.03;1.73;;;23.50;43.80;;;;;;6166371;28;81964;-61
2023/11/08 11:39:55;;;;;;;5.10;1.95;;;23.60;43.70;;;;;;6174026;28;85029;-62
2023/11/08 11:42:58;;;;;;;3.20;1.90;;;23.70;43.70;;;;;;6173226;28;80985;-63
2023/11/08 11:45:58;;;;;;;2.70;1.80;;;23.60;43.40;;;;;;6174453;28;80608;-64
2023/11/08 11:48:59;;;;;;;2.70;1.50;;;23.60;43.40;;;;;;6179981;28;81798;-64
2023/11/08 11:51:59;;;;;;;2.50;1.67;;;23.60;43.40;;;;;;6177504;28;86359;-63
2023/11/08 11:55:00;;;;;;;2.78;1.63;;;23.60;43.20;;;;;;6156160;28;80482;-63
2023/11/08 11:58:01;;;;;;;4.10;1.70;;;23.60;43.30;;;;;;6155898;28;80548;-63
2023/11/08 12:01:03;;;;;;;2.38;1.40;;;23.50;43.10;;;;;;6154626;28;80694;-63
2023/11/08 12:04:04;;;;;;;4.95;1.67;;;23.50;43.40;;;;;;6155043;28;81402;-62
2023/11/08 12:07:04;;;;;;;4.10;1.85;;;23.40;43.20;;;;;;6157635;28;87638;-65
2023/11/08 12:10:07;;;;;;;3.10;1.90;;;23.40;43.20;;;;;;6179825;28;80800;-65
2023/11/08 12:13:08;;;;;;;2.63;1.25;;;23.30;43.10;;;;;;6177180;28;80294;-65
2023/11/08 12:16:08;;;;;;;4.57;1.70;;;23.50;42.70;;;;;;6178366;28;80569;-65
2023/11/08 12:19:11;;;;;;;1.80;1.30;;;23.40;42.70;;;;;;6179048;28;81598;-63
2023/11/08 12:22:11;;;;;;;3.45;1.50;;;23.40;42.60;;;;;;6179481;28;80817;-60
2023/11/08 12:25:12;;;;;;;3.92;1.23;;;23.40;43.20;;;;;;6179023;28;81638;-60
2023/11/08 12:28:12;;;;;;;2.88;1.60;;;23.40;42.40;;;;;;6186793;28;80903;-60
2023/11/08 12:31:14;;;;;;;1.83;1.10;;;23.30;42.10;;;;;;6180261;28;80374;-60
2023/11/08 12:34:15;;;;;;;3.05;1.10;;;23.30;42.20;;;;;;6179595;28;81959;-60
2023/11/08 12:37:15;;;;;;;2.53;1.33;;;23.30;42.00;;;;;;6178954;28;80371;-61
2023/11/08 12:40:16;;;;;;;3.30;1.45;;;23.30;41.80;;;;;;6170615;28;80952;-61
2023/11/08 12:43:18;;;;;;;2.25;1.13;;;23.30;41.60;;;;;;6178516;28;80529;-59
2023/11/08 12:46:19;;;;;;;1.85;1.10;;;23.30;41.60;;;;;;6176472;28;81432;-59
2023/11/08 12:49:19;;;;;;;2.40;0.93;;;23.30;41.50;;;;;;6175538;28;82404;-60
2023/11/08 12:52:21;;;;;;;2.20;1.23;;;23.30;41.80;;;;;;6171398;28;80372;-61
2023/11/08 12:55:21;;;;;;;3.28;1.95;;;23.30;41.70;;;;;;6178415;28;81242;-60
2023/11/08 12:58:22;;;;;;;3.20;1.40;;;23.30;42.00;;;;;;6178601;28;81339;-62
2023/11/08 13:01:22;;;;;;;5.22;1.10;;;23.30;42.00;;;;;;6180028;28;81534;-61
2023/11/08 13:04:23;;;;;;;2.10;1.38;;;23.30;41.90;;;;;;6175755;28;83857;-62
2023/11/08 13:07:23;;;;;;;2.67;1.30;;;23.30;41.60;;;;;;6175963;28;81042;-62
2023/11/08 13:10:24;;;;;;;2.25;1.30;;;23.30;41.80;;;;;;6180092;28;80328;-61
2023/11/08 13:13:25;;;;;;;4.80;1.33;;;23.30;41.60;;;;;;6179930;28;80727;-59
2023/11/08 13:16:25;;;;;;;4.13;1.30;;;23.30;41.30;;;;;;6180248;28;80473;-59
2023/11/08 13:19:26;;;;;;;2.28;1.10;;;23.40;41.60;;;;;;6180272;28;80426;-65
2023/11/08 13:22:26;;;;;;;3.67;1.45;;;23.40;41.20;;;;;;6177552;28;81590;-68
2023/11/08 13:25:27;;;;;;;2.97;1.23;;;23.40;40.90;;;;;;6178724;28;82016;-65
2023/11/08 13:28:27;;;;;;;3.08;1.20;;;23.40;41.30;;;;;;6179735;28;80895;-66
2023/11/08 13:31:28;;;;;;;2.00;1.10;;;23.30;41.00;;;;;;6176794;28;80798;-67
2023/11/08 13:34:28;;;;;;;2.47;1.17;;;23.30;41.10;;;;;;6173451;28;83082;-67
2023/11/08 13:37:29;;;;;;;2.33;1.40;;;23.30;42.00;;;;;;6176525;28;81116;-66
2023/11/08 13:40:30;;;;;;;2.53;1.30;;;23.30;41.20;;;;;;6178541;28;81009;-68
2023/11/08 13:43:30;;;;;;;3.17;1.40;;;23.20;41.30;;;;;;6179444;28;80869;-69
2023/11/08 13:46:31;;;;;;;3.95;1.38;;;23.20;41.30;;;;;;6178198;28;81933;-64
2023/11/08 13:49:31;;;;;;;4.38;1.20;;;23.20;41.50;;;;;;6177662;28;80404;-65
2023/11/08 13:52:32;;;;;;;3.78;1.50;;;23.20;41.30;;;;;;6175431;28;80397;-64
2023/11/08 13:55:33;;;;;;;3.13;1.65;;;23.20;41.10;;;;;;6178954;28;80563;-67
2023/11/08 13:58:33;;;;;;;3.67;1.27;;;23.10;41.20;;;;;;6180233;28;80666;-64
2023/11/08 14:01:34;;;;;;;3.20;1.55;;;23.10;41.30;;;;;;6179472;28;80913;-64
2023/11/08 14:04:35;;;;;;;3.10;1.45;;;23.10;41.20;;;;;;6173495;28;80898;-70
2023/11/08 14:07:36;;;;;;;3.15;1.30;;;23.10;41.50;;;;;;6169349;28;82799;-69
2023/11/08 14:10:36;;;;;;;2.55;1.20;;;23.10;42.10;;;;;;6176440;28;81147;-68
2023/11/08 14:13:37;;;;;;;3.25;1.50;;;23.00;42.70;;;;;;6175438;28;82477;-59
2023/11/08 14:16:37;;;;;;;3.65;1.27;;;22.90;42.90;;;;;;6172355;28;82109;-59
2023/11/08 14:19:38;;;;;;;3.30;1.63;;;22.80;43.20;;;;;;6173620;28;80394;-59
2023/11/08 14:22:39;;;;;;;2.65;1.50;;;22.70;43.50;;;;;;6173154;28;81335;-60
2023/11/08 14:25:39;;;;;;;2.67;1.38;;;22.60;43.70;;;;;;6167825;28;80327;-59
2023/11/08 14:28:40;;;;;;;4.38;1.27;;;22.60;43.90;;;;;;6173616;28;80430;-58
2023/11/08 14:31:40;;;;;;;4.50;1.48;;;22.50;44.00;;;;;;6155414;28;80536;-72
2023/11/08 14:34:42;;;;;;;3.55;1.73;;;22.40;44.10;;;;;;6164039;28;83432;-68
2023/11/08 14:37:43;;;;;;;7.95;1.40;;;22.50;44.70;;;;;;6175263;28;80654;-69
2023/11/08 14:40:44;;;;;;;4.53;1.20;;;22.60;44.70;;;;;;6174904;28;81099;-67
2023/11/08 14:43:45;;;;;;;8.43;1.33;;;22.80;44.80;;;;;;6175145;28;80505;-67
2023/11/08 14:46:46;;;;;;;7.18;1.23;;;22.80;44.70;;;;;;6173367;28;83761;-65
2023/11/08 14:49:46;;;;;;;1.52;1.10;;;22.90;44.60;;;;;;6175103;28;81097;-61
2023/11/08 14:52:47;;;;;;;7.65;1.13;;;22.90;44.50;;;;;;6167205;28;80832;-65
2023/11/08 14:55:47;;;;;;;3.08;1.30;;;23.00;44.90;;;;;;6168858;28;80706;-61
2023/11/08 14:58:50;;;;;;;10.10;1.48;;;23.10;44.90;;;;;;6169209;28;81554;-63
2023/11/08 15:01:52;;;;;;;9.48;1.77;;;23.10;45.50;;;;;;6171833;28;80566;-61
2023/11/08 15:04:53;;;;;;;5.93;1.50;;;23.10;45.70;;;;;;6172626;28;80434;-61
2023/11/08 15:07:53;;;;;;;4.43;0.90;;;23.10;44.90;;;;;;6173277;28;80369;-71
2023/11/08 15:10:54;;;;;;;5.78;1.08;;;23.10;44.80;;;;;;6174743;28;80332;-69
2023/11/08 15:13:54;;;;;;;5.38;1.10;;;23.20;44.80;;;;;;6176185;28;81405;-71
2023/11/08 15:16:55;;;;;;;3.63;1.52;;;23.20;44.80;;;;;;6175603;28;80934;-71
2023/11/08 15:19:56;;;;;;;5.22;1.52;;;23.20;45.40;;;;;;6173327;28;80462;-71
2023/11/08 15:22:56;;;;;;;4.20;1.20;;;23.20;44.70;;;;;;6174842;28;80553;-72
2023/11/08 15:25:57;;;;;;;8.68;1.33;;;23.20;44.70;;;;;;6173147;28;81795;-71
2023/11/08 15:28:57;;;;;;;3.22;1.38;;;23.20;44.60;;;;;;6172224;28;82461;-62
2023/11/08 15:31:59;;;;;;;2.55;1.10;;;23.30;44.80;;;;;;6174745;28;80632;-62